Relevés horaires Beauvechain (Belgique)


Relevés horaires à Beauvechain - Samedi 04 Avr. 2020
Heure UTC1 Température [°C] Vent [km/h] Hum. [%] Pres.4 [hPa] Visi. [Km] Nébu. [octa] Préc.5 [mm] Cond.
2m. Res. Ros. Dir.2 Vit. Moy. Raf.3
23:00 8.1 8.1 -0.9 NNO 1.9 -- 5.6 53 1022.8(-0.2/3h) 20 -- -- --
22:00 8.1 8.1 -0.9 E 3.7 -- 7.4 53 1022.8(0.0/3h) 20 -- -- --
21:00 9.5 9 -0.9 E 5.6 -- 7.4 48 1022.7(0.2/3h) 20 -- -- --
20:00 10.4 10.4 0.4 E 3.7 -- 5.6 50 1023.1(0.6/3h) 20 -- -- --
19:00 11.0 11.0 0.7 ENE 3.7 -- 7.4 49 1022.7(0.3/3h) 20 -- -- --
18:00 12.4 12.3 0.8 ENE 5.6 -- 9.3 45 1022.2(-0.2/3h) 20 -- -- --
17:00 13.5 13.5 2.2 ENE 3.7 -- 9.3 46 1022.2(-0.7/3h) 19 -- -- --
16:00 14.2 14.2 0.9 SE 3.7 -- 9.3 40 1022.2(-1.0/3h) 20 -- -- --
15:00 14.2 14.2 0.8 NNO 1.9 -- 9.3 40 1022.5(-1.2/3h) 20 -- -- --
14:00 14.1 14.1 0.4 ESE 3.7 -- 9.3 39 1022.8(-1.1/3h) 20 -- -- --
13:00 13.0 13.0 0.7 NNO 1.9 -- 9.3 43 1023.3(-1.1/3h) 20 -- -- --
12:00 14.0 14.0 2.6 SSE 3.7 -- 11.1 46 1023.7(-0.6/3h) 20 -- -- --
11:00 12.3 12.3 1.4 SSE 3.7 -- 11.1 47 1024.2(0.1/3h) 20 -- -- --
10:00 11.3 11.1 0.6 SE 5.6 -- 9.3 48 1024.5(0.7/3h) 17 -- -- --
09:00 9.9 9.5 0.9 SE 5.6 -- 7.4 53 1024.5(1.2/3h) 20 -- -- --
08:00 8.3 8.3 -- SE 3.7 -- 5.6 -- 1024.2(1.1/3h) 19 -- -- --
07:00 6.3 6.3 -0.9 SE 3.7 -- 5.6 60 1024(1.2/3h) 20 -- -- --
06:00 5.9 5.9 -1.7 SSE 3.7 -- 5.6 58 1023.6(0.8/3h) 20 -- -- --
05:00 5.6 5.6 -1.9 NNO 1.9 -- 5.6 58 1023.2(0.3/3h) 20 -- -- --
04:00 5.8 5.8 -1.9 SE 3.7 -- 5.6 58 1022.8(0.2/3h) 20 -- -- --
03:00 6.3 6.3 -1.9 SE 3.7 -- 5.6 56 1022.7(0.2/3h) 20 -- -- --
02:00 6.2 6.2 -2.1 SE 3.7 -- 5.6 55 1022.7(0.4/3h) 20 -- -- --
01:00 6.4 6.4 -1.9 SSE 3.7 -- 5.6 55 1022.5(0.5/3h) 20 -- -- --
00:00 6.5 6.5 -2.0 SSE 3.7 -- 5.6 54 1022.5(0.5/3h) 20 -- -- --

1 Coordinated Universal Time. Actuellement il est 22:00 locale et 20:00 UTC.

2 Le vent souffle depuis la direction indiquée vers la direction oposée.

3 Les rafales max. sont disponible 40 min après l'heure du relevé.

4 Pour les stations d'altitude (plus de 600m) le géopotentiel du niveau le plus proche de la pression obligatoire est indiqué.

5 Les stations disposant d'un diffuseur peuvent indiquer "trace". Cela signifie que des précipitations ont touchés le sol mais que la quantité est inférieure à 0.1 mm.

Récapitulatif de la journée
Température [°C] Vent [km/h] Ensoleillement4 [h] Precipitations totale5 [mm] Pression [Hpa]
Min1 Max.2 Moy.3 Max. Min Max.
5.4 14.8 0 11.1 0 h 0 min 0 1022.2 1024.5

1 Température minimale relevée entre 18:00 UTC la veille et 18:00 UTC le jour donné.

2 Température maximale relevée entre 06:00 UTC le jour donné et 06:00 UTC le lendemain.

3 Vent moyen de la journée basé sur les relevés horaires.

4 Ensoleillement en heures relevé entre 06:00 UTC la veille et 06:00 UTC le jour donné.

5 Précipitations totales tombées entre 06:00 UTC la jour donné et 06:00 UTC le lendemain.

Graphiques horaires